sensor_id;sensor_type;location;lat;lon;timestamp;pressure;altitude;pressure_sealevel;temperature;humidity
44441;BME280;30146;52.268;20.944;2023-02-03T00:00:51;100708.48;;;1.98;71.43
44441;BME280;30146;52.268;20.944;2023-02-03T00:03:22;100707.48;;;1.99;71.21
44441;BME280;30146;52.268;20.944;2023-02-03T00:05:54;100709.89;;;2.00;71.09
44441;BME280;30146;52.268;20.944;2023-02-03T00:08:25;100705.31;;;1.99;71.04
44441;BME280;30146;52.268;20.944;2023-02-03T00:10:57;100700.89;;;1.98;70.96
44441;BME280;30146;52.268;20.944;2023-02-03T00:13:28;100697.65;;;1.97;70.97
44441;BME280;30146;52.268;20.944;2023-02-03T00:15:59;100690.47;;;1.94;70.84
44441;BME280;30146;52.268;20.944;2023-02-03T00:18:31;100691.55;;;1.91;70.81
44441;BME280;30146;52.268;20.944;2023-02-03T00:21:02;100699.07;;;1.88;70.64
44441;BME280;30146;52.268;20.944;2023-02-03T00:23:33;100697.90;;;1.83;70.56
44441;BME280;30146;52.268;20.944;2023-02-03T00:26:09;100702.64;;;1.79;70.51
44441;BME280;30146;52.268;20.944;2023-02-03T00:28:41;100706.02;;;1.73;70.51
44441;BME280;30146;52.268;20.944;2023-02-03T00:31:17;100703.05;;;1.70;70.47
44441;BME280;30146;52.268;20.944;2023-02-03T00:33:54;100703.25;;;1.66;70.60
44441;BME280;30146;52.268;20.944;2023-02-03T00:36:25;100703.80;;;1.62;70.44
44441;BME280;30146;52.268;20.944;2023-02-03T00:38:56;100703.35;;;1.59;70.47
44441;BME280;30146;52.268;20.944;2023-02-03T00:41:30;100705.77;;;1.56;70.59
44441;BME280;30146;52.268;20.944;2023-02-03T00:44:02;100711.20;;;1.52;70.54
44441;BME280;30146;52.268;20.944;2023-02-03T00:46:33;100715.42;;;1.47;70.55
44441;BME280;30146;52.268;20.944;2023-02-03T00:49:05;100719.35;;;1.43;70.51
44441;BME280;30146;52.268;20.944;2023-02-03T00:51:36;100725.11;;;1.40;70.55
44441;BME280;30146;52.268;20.944;2023-02-03T00:54:07;100730.89;;;1.36;70.52
44441;BME280;30146;52.268;20.944;2023-02-03T00:56:39;100733.17;;;1.34;70.51
44441;BME280;30146;52.268;20.944;2023-02-03T00:59:10;100736.31;;;1.32;70.58
44441;BME280;30146;52.268;20.944;2023-02-03T01:01:41;100729.99;;;1.29;70.49
44441;BME280;30146;52.268;20.944;2023-02-03T01:04:12;100729.45;;;1.28;70.55
44441;BME280;30146;52.268;20.944;2023-02-03T01:06:43;100733.46;;;1.27;70.73
44441;BME280;30146;52.268;20.944;2023-02-03T01:09:14;100732.64;;;1.28;70.64
44441;BME280;30146;52.268;20.944;2023-02-03T01:11:45;100733.21;;;1.30;70.62
44441;BME280;30146;52.268;20.944;2023-02-03T01:14:16;100734.52;;;1.33;70.75
44441;BME280;30146;52.268;20.944;2023-02-03T01:16:47;100739.89;;;1.38;70.70
44441;BME280;30146;52.268;20.944;2023-02-03T01:19:19;100742.05;;;1.42;70.67
44441;BME280;30146;52.268;20.944;2023-02-03T01:21:50;100740.98;;;1.45;70.70
44441;BME280;30146;52.268;20.944;2023-02-03T01:24:21;100740.08;;;1.48;70.67
44441;BME280;30146;52.268;20.944;2023-02-03T01:26:51;100735.98;;;1.52;70.72
44441;BME280;30146;52.268;20.944;2023-02-03T01:29:23;100738.61;;;1.55;70.60
44441;BME280;30146;52.268;20.944;2023-02-03T01:31:53;100735.15;;;1.58;70.28
44441;BME280;30146;52.268;20.944;2023-02-03T01:34:25;100733.73;;;1.61;70.57
44441;BME280;30146;52.268;20.944;2023-02-03T01:36:56;100735.04;;;1.64;70.56
44441;BME280;30146;52.268;20.944;2023-02-03T01:39:26;100739.22;;;1.68;70.50
44441;BME280;30146;52.268;20.944;2023-02-03T01:41:58;100742.33;;;1.71;70.41
44441;BME280;30146;52.268;20.944;2023-02-03T01:44:46;100737.19;;;1.73;70.35
44441;BME280;30146;52.268;20.944;2023-02-03T01:47:28;100728.50;;;1.76;70.35
44441;BME280;30146;52.268;20.944;2023-02-03T01:50:16;100728.42;;;1.79;70.20
44441;BME280;30146;52.268;20.944;2023-02-03T01:52:51;100717.88;;;1.81;70.26
44441;BME280;30146;52.268;20.944;2023-02-03T01:55:26;100715.56;;;1.82;69.99
44441;BME280;30146;52.268;20.944;2023-02-03T01:58:00;100716.04;;;1.81;69.90
44441;BME280;30146;52.268;20.944;2023-02-03T02:00:33;100718.23;;;1.82;69.96
44441;BME280;30146;52.268;20.944;2023-02-03T02:03:05;100719.80;;;1.83;69.67
44441;BME280;30146;52.268;20.944;2023-02-03T02:08:43;100720.67;;;1.84;69.59
44441;BME280;30146;52.268;20.944;2023-02-03T02:11:25;100716.52;;;1.85;69.49
44441;BME280;30146;52.268;20.944;2023-02-03T02:13:57;100716.79;;;1.83;68.97
44441;BME280;30146;52.268;20.944;2023-02-03T02:16:38;100708.14;;;1.82;69.02
44441;BME280;30146;52.268;20.944;2023-02-03T02:19:35;100705.29;;;1.82;68.75
44441;BME280;30146;52.268;20.944;2023-02-03T02:22:15;100700.07;;;1.82;68.67
44441;BME280;30146;52.268;20.944;2023-02-03T02:25:03;100697.86;;;1.82;68.68
44441;BME280;30146;52.268;20.944;2023-02-03T02:31:01;100695.27;;;1.81;68.38
44441;BME280;30146;52.268;20.944;2023-02-03T02:33:41;100694.94;;;1.80;68.55
44441;BME280;30146;52.268;20.944;2023-02-03T02:36:25;100696.60;;;1.80;68.36
44441;BME280;30146;52.268;20.944;2023-02-03T02:39:05;100690.46;;;1.78;68.29
44441;BME280;30146;52.268;20.944;2023-02-03T02:41:42;100679.98;;;1.76;68.20
44441;BME280;30146;52.268;20.944;2023-02-03T02:44:18;100679.08;;;1.74;68.22
44441;BME280;30146;52.268;20.944;2023-02-03T02:46:55;100679.64;;;1.71;68.26
44441;BME280;30146;52.268;20.944;2023-02-03T02:49:31;100680.20;;;1.67;67.99
44441;BME280;30146;52.268;20.944;2023-02-03T02:52:05;100683.92;;;1.63;68.09
44441;BME280;30146;52.268;20.944;2023-02-03T02:54:39;100686.48;;;1.58;68.00
44441;BME280;30146;52.268;20.944;2023-02-03T02:57:13;100689.92;;;1.55;68.05
44441;BME280;30146;52.268;20.944;2023-02-03T02:59:47;100688.60;;;1.51;68.16
44441;BME280;30146;52.268;20.944;2023-02-03T03:02:18;100686.08;;;1.46;68.03
44441;BME280;30146;52.268;20.944;2023-02-03T03:04:50;100682.35;;;1.40;68.16
44441;BME280;30146;52.268;20.944;2023-02-03T03:07:24;100683.70;;;1.35;68.13
44441;BME280;30146;52.268;20.944;2023-02-03T03:09:59;100687.91;;;1.30;68.27
44441;BME280;30146;52.268;20.944;2023-02-03T03:12:34;100690.94;;;1.25;68.08
44441;BME280;30146;52.268;20.944;2023-02-03T03:15:09;100686.85;;;1.19;68.19
44441;BME280;30146;52.268;20.944;2023-02-03T03:17:44;100685.88;;;1.14;68.30
44441;BME280;30146;52.268;20.944;2023-02-03T03:20:20;100686.56;;;1.10;68.27
44441;BME280;30146;52.268;20.944;2023-02-03T03:22:56;100689.97;;;1.07;68.46
44441;BME280;30146;52.268;20.944;2023-02-03T03:25:33;100693.88;;;1.03;68.30
44441;BME280;30146;52.268;20.944;2023-02-03T03:28:09;100692.09;;;1.00;68.37
44441;BME280;30146;52.268;20.944;2023-02-03T03:30:42;100691.46;;;0.96;68.33
44441;BME280;30146;52.268;20.944;2023-02-03T03:33:13;100689.01;;;0.93;68.58
44441;BME280;30146;52.268;20.944;2023-02-03T03:35:48;100683.88;;;0.91;68.51
44441;BME280;30146;52.268;20.944;2023-02-03T03:38:24;100676.86;;;0.88;68.56
44441;BME280;30146;52.268;20.944;2023-02-03T03:41:04;100675.56;;;0.84;68.46
44441;BME280;30146;52.268;20.944;2023-02-03T03:43:39;100670.92;;;0.82;68.60
44441;BME280;30146;52.268;20.944;2023-02-03T03:46:15;100669.16;;;0.79;68.67
44441;BME280;30146;52.268;20.944;2023-02-03T03:48:51;100670.25;;;0.77;68.72
44441;BME280;30146;52.268;20.944;2023-02-03T03:51:27;100670.99;;;0.74;68.65
44441;BME280;30146;52.268;20.944;2023-02-03T03:54:03;100672.57;;;0.71;68.70
44441;BME280;30146;52.268;20.944;2023-02-03T03:56:40;100669.91;;;0.67;68.63
44441;BME280;30146;52.268;20.944;2023-02-03T03:59:12;100671.12;;;0.63;68.53
44441;BME280;30146;52.268;20.944;2023-02-03T04:01:46;100672.35;;;0.60;68.49
44441;BME280;30146;52.268;20.944;2023-02-03T04:04:18;100672.41;;;0.57;68.57
44441;BME280;30146;52.268;20.944;2023-02-03T04:06:51;100677.00;;;0.54;68.50
44441;BME280;30146;52.268;20.944;2023-02-03T04:09:22;100678.70;;;0.50;68.63
44441;BME280;30146;52.268;20.944;2023-02-03T04:11:53;100675.73;;;0.47;68.51
44441;BME280;30146;52.268;20.944;2023-02-03T04:14:35;100672.44;;;0.44;68.66
44441;BME280;30146;52.268;20.944;2023-02-03T04:17:07;100676.55;;;0.41;68.69
44441;BME280;30146;52.268;20.944;2023-02-03T04:19:38;100679.83;;;0.39;68.74
44441;BME280;30146;52.268;20.944;2023-02-03T04:22:09;100677.38;;;0.36;68.79
44441;BME280;30146;52.268;20.944;2023-02-03T04:24:40;100677.12;;;0.34;68.85
44441;BME280;30146;52.268;20.944;2023-02-03T04:27:10;100676.70;;;0.32;68.81
44441;BME280;30146;52.268;20.944;2023-02-03T04:29:43;100675.60;;;0.30;68.83
44441;BME280;30146;52.268;20.944;2023-02-03T04:32:16;100676.89;;;0.28;68.86
44441;BME280;30146;52.268;20.944;2023-02-03T04:34:47;100676.83;;;0.26;68.96
44441;BME280;30146;52.268;20.944;2023-02-03T04:37:18;100678.02;;;0.26;68.99
44441;BME280;30146;52.268;20.944;2023-02-03T04:39:49;100679.29;;;0.24;69.09
44441;BME280;30146;52.268;20.944;2023-02-03T04:42:21;100677.85;;;0.22;69.05
44441;BME280;30146;52.268;20.944;2023-02-03T04:44:52;100671.75;;;0.21;68.90
44441;BME280;30146;52.268;20.944;2023-02-03T04:47:23;100673.99;;;0.18;68.99
44441;BME280;30146;52.268;20.944;2023-02-03T04:49:54;100671.59;;;0.17;69.02
44441;BME280;30146;52.268;20.944;2023-02-03T04:52:25;100669.53;;;0.15;69.18
44441;BME280;30146;52.268;20.944;2023-02-03T04:54:55;100668.98;;;0.14;69.18
44441;BME280;30146;52.268;20.944;2023-02-03T04:57:26;100668.77;;;0.13;69.26
44441;BME280;30146;52.268;20.944;2023-02-03T04:59:57;100665.15;;;0.11;69.10
44441;BME280;30146;52.268;20.944;2023-02-03T05:02:28;100663.61;;;0.10;69.24
44441;BME280;30146;52.268;20.944;2023-02-03T05:04:59;100659.20;;;0.09;69.31
44441;BME280;30146;52.268;20.944;2023-02-03T05:07:29;100651.27;;;0.08;69.25
44441;BME280;30146;52.268;20.944;2023-02-03T05:10:00;100653.76;;;0.07;69.30
44441;BME280;30146;52.268;20.944;2023-02-03T05:12:31;100650.52;;;0.06;69.42
44441;BME280;30146;52.268;20.944;2023-02-03T05:15:02;100650.30;;;0.05;69.43
44441;BME280;30146;52.268;20.944;2023-02-03T05:17:33;100646.73;;;0.04;69.56
44441;BME280;30146;52.268;20.944;2023-02-03T05:20:09;100642.52;;;0.04;69.70
44441;BME280;30146;52.268;20.944;2023-02-03T05:22:40;100643.70;;;0.04;69.69
44441;BME280;30146;52.268;20.944;2023-02-03T05:25:13;100639.70;;;0.04;69.64
44441;BME280;30146;52.268;20.944;2023-02-03T05:27:44;100634.83;;;0.04;69.62
44441;BME280;30146;52.268;20.944;2023-02-03T05:30:15;100635.64;;;0.04;69.56
44441;BME280;30146;52.268;20.944;2023-02-03T05:32:45;100631.24;;;0.03;69.65
44441;BME280;30146;52.268;20.944;2023-02-03T05:35:18;100632.91;;;0.03;69.62
44441;BME280;30146;52.268;20.944;2023-02-03T05:37:48;100631.23;;;0.03;69.52
44441;BME280;30146;52.268;20.944;2023-02-03T05:40:19;100626.71;;;0.03;69.61
44441;BME280;30146;52.268;20.944;2023-02-03T05:43:08;100624.48;;;0.02;69.60
44441;BME280;30146;52.268;20.944;2023-02-03T05:45:39;100626.77;;;-0.00;69.71
44441;BME280;30146;52.268;20.944;2023-02-03T05:48:10;100624.07;;;-0.01;69.79
44441;BME280;30146;52.268;20.944;2023-02-03T05:50:41;100628.11;;;-0.00;69.70
44441;BME280;30146;52.268;20.944;2023-02-03T05:53:12;100623.23;;;-0.00;69.80
44441;BME280;30146;52.268;20.944;2023-02-03T05:55:43;100622.54;;;-0.01;69.73
44441;BME280;30146;52.268;20.944;2023-02-03T05:58:14;100621.52;;;-0.01;69.73
44441;BME280;30146;52.268;20.944;2023-02-03T06:00:44;100619.84;;;-0.01;69.94
44441;BME280;30146;52.268;20.944;2023-02-03T06:03:15;100620.66;;;-0.01;69.78
44441;BME280;30146;52.268;20.944;2023-02-03T06:05:46;100623.73;;;-0.00;70.05
44441;BME280;30146;52.268;20.944;2023-02-03T06:08:17;100620.95;;;0.02;69.84
44441;BME280;30146;52.268;20.944;2023-02-03T06:10:48;100619.88;;;0.05;69.95
44441;BME280;30146;52.268;20.944;2023-02-03T06:13:19;100619.64;;;0.07;70.06
44441;BME280;30146;52.268;20.944;2023-02-03T06:15:49;100616.23;;;0.11;70.29
44441;BME280;30146;52.268;20.944;2023-02-03T06:18:20;100614.77;;;0.12;70.08
44441;BME280;30146;52.268;20.944;2023-02-03T06:20:51;100610.33;;;0.14;70.10
44441;BME280;30146;52.268;20.944;2023-02-03T06:23:22;100602.83;;;0.16;70.16
44441;BME280;30146;52.268;20.944;2023-02-03T06:25:53;100597.20;;;0.18;70.21
44441;BME280;30146;52.268;20.944;2023-02-03T06:28:24;100597.11;;;0.21;70.23
44441;BME280;30146;52.268;20.944;2023-02-03T06:30:55;100596.20;;;0.24;70.35
44441;BME280;30146;52.268;20.944;2023-02-03T06:33:26;100592.93;;;0.27;70.13
44441;BME280;30146;52.268;20.944;2023-02-03T06:35:56;100589.50;;;0.29;70.20
44441;BME280;30146;52.268;20.944;2023-02-03T06:38:27;100583.88;;;0.32;70.10
44441;BME280;30146;52.268;20.944;2023-02-03T06:40:58;100578.95;;;0.35;70.27
44441;BME280;30146;52.268;20.944;2023-02-03T06:43:29;100572.23;;;0.40;70.38
44441;BME280;30146;52.268;20.944;2023-02-03T06:46:00;100574.71;;;0.43;70.41
44441;BME280;30146;52.268;20.944;2023-02-03T06:48:30;100572.58;;;0.50;70.63
44441;BME280;30146;52.268;20.944;2023-02-03T06:51:01;100562.04;;;0.56;70.61
44441;BME280;30146;52.268;20.944;2023-02-03T06:53:34;100561.84;;;0.65;70.60
44441;BME280;30146;52.268;20.944;2023-02-03T06:56:05;100554.79;;;0.76;70.78
44441;BME280;30146;52.268;20.944;2023-02-03T06:58:36;100550.95;;;0.87;70.60
44441;BME280;30146;52.268;20.944;2023-02-03T07:01:07;100547.45;;;0.98;70.47
44441;BME280;30146;52.268;20.944;2023-02-03T07:03:37;100539.67;;;1.12;70.58
44441;BME280;30146;52.268;20.944;2023-02-03T07:06:08;100534.89;;;1.37;70.65
44441;BME280;30146;52.268;20.944;2023-02-03T07:08:39;100530.17;;;1.77;71.27
44441;BME280;30146;52.268;20.944;2023-02-03T07:11:11;100529.89;;;2.15;71.02
44441;BME280;30146;52.268;20.944;2023-02-03T07:13:42;100523.75;;;2.50;70.71
44441;BME280;30146;52.268;20.944;2023-02-03T07:16:13;100511.39;;;3.02;71.12
44441;BME280;30146;52.268;20.944;2023-02-03T07:18:45;100504.41;;;3.77;71.51
44441;BME280;30146;52.268;20.944;2023-02-03T07:21:17;100501.35;;;4.56;71.25
44441;BME280;30146;52.268;20.944;2023-02-03T07:23:49;100491.23;;;5.58;71.86
44441;BME280;30146;52.268;20.944;2023-02-03T07:26:20;100483.40;;;6.81;72.37
44441;BME280;30146;52.268;20.944;2023-02-03T07:28:51;100481.24;;;7.66;70.66
44441;BME280;30146;52.268;20.944;2023-02-03T07:31:22;100478.77;;;7.84;68.03
44441;BME280;30146;52.268;20.944;2023-02-03T07:33:54;100476.23;;;7.88;65.88
44441;BME280;30146;52.268;20.944;2023-02-03T07:36:24;100474.16;;;7.82;64.53
44441;BME280;30146;52.268;20.944;2023-02-03T07:38:56;100476.69;;;7.74;63.63
44441;BME280;30146;52.268;20.944;2023-02-03T07:41:27;100475.02;;;7.89;63.86
44441;BME280;30146;52.268;20.944;2023-02-03T07:43:58;100469.85;;;8.20;64.00
44441;BME280;30146;52.268;20.944;2023-02-03T07:46:29;100464.60;;;8.31;62.95
44441;BME280;30146;52.268;20.944;2023-02-03T07:48:59;100459.67;;;8.37;62.25
44441;BME280;30146;52.268;20.944;2023-02-03T07:51:36;100450.52;;;8.56;62.27
44441;BME280;30146;52.268;20.944;2023-02-03T07:54:07;100445.08;;;8.82;62.10
44441;BME280;30146;52.268;20.944;2023-02-03T07:56:38;100439.77;;;8.91;60.88
44441;BME280;30146;52.268;20.944;2023-02-03T07:59:09;100436.18;;;9.01;60.57
44441;BME280;30146;52.268;20.944;2023-02-03T08:01:40;100423.53;;;9.15;59.87
44441;BME280;30146;52.268;20.944;2023-02-03T08:04:11;100421.79;;;9.33;59.70
44441;BME280;30146;52.268;20.944;2023-02-03T08:06:45;100423.05;;;9.59;59.44
44441;BME280;30146;52.268;20.944;2023-02-03T08:09:17;100420.23;;;9.78;58.83
44441;BME280;30146;52.268;20.944;2023-02-03T08:11:48;100420.09;;;9.70;57.49
44441;BME280;30146;52.268;20.944;2023-02-03T08:14:32;100410.96;;;9.49;57.08
44441;BME280;30146;52.268;20.944;2023-02-03T08:17:03;100414.20;;;9.52;56.82
44441;BME280;30146;52.268;20.944;2023-02-03T08:19:34;100413.79;;;9.69;57.17
44441;BME280;30146;52.268;20.944;2023-02-03T08:22:05;100401.60;;;9.83;57.11
44441;BME280;30146;52.268;20.944;2023-02-03T08:24:40;100397.40;;;9.70;55.98
44441;BME280;30146;52.268;20.944;2023-02-03T08:27:15;100395.80;;;9.47;55.66
44441;BME280;30146;52.268;20.944;2023-02-03T08:29:47;100397.42;;;9.20;55.25
44441;BME280;30146;52.268;20.944;2023-02-03T08:32:19;100400.54;;;9.03;55.24
44441;BME280;30146;52.268;20.944;2023-02-03T08:34:53;100395.59;;;8.99;55.34
44441;BME280;30146;52.268;20.944;2023-02-03T08:37:25;100389.33;;;8.89;55.26
44441;BME280;30146;52.268;20.944;2023-02-03T08:39:56;100388.30;;;8.77;54.95
44441;BME280;30146;52.268;20.944;2023-02-03T08:42:28;100375.20;;;8.64;54.80
44441;BME280;30146;52.268;20.944;2023-02-03T08:44:58;100367.02;;;8.55;54.91
44441;BME280;30146;52.268;20.944;2023-02-03T08:47:34;100364.81;;;8.54;54.90
44441;BME280;30146;52.268;20.944;2023-02-03T08:50:08;100356.81;;;8.60;55.37
44441;BME280;30146;52.268;20.944;2023-02-03T08:52:39;100354.90;;;8.81;55.50
44441;BME280;30146;52.268;20.944;2023-02-03T08:55:10;100354.48;;;9.11;55.39
44441;BME280;30146;52.268;20.944;2023-02-03T08:57:41;100352.88;;;9.27;55.38
44441;BME280;30146;52.268;20.944;2023-02-03T09:00:14;100345.52;;;9.33;54.73
44441;BME280;30146;52.268;20.944;2023-02-03T09:02:46;100338.05;;;9.24;53.87
44441;BME280;30146;52.268;20.944;2023-02-03T09:05:17;100333.69;;;9.11;53.54
44441;BME280;30146;52.268;20.944;2023-02-03T09:07:47;100328.81;;;8.85;53.16
44441;BME280;30146;52.268;20.944;2023-02-03T09:10:19;100323.76;;;8.54;52.94
44441;BME280;30146;52.268;20.944;2023-02-03T09:12:50;100323.08;;;8.27;53.03
44441;BME280;30146;52.268;20.944;2023-02-03T09:15:21;100315.92;;;8.17;53.57
44441;BME280;30146;52.268;20.944;2023-02-03T09:17:51;100315.24;;;8.08;53.61
44441;BME280;30146;52.268;20.944;2023-02-03T09:20:26;100314.05;;;7.98;53.65
44441;BME280;30146;52.268;20.944;2023-02-03T09:22:59;100314.36;;;7.79;53.46
44441;BME280;30146;52.268;20.944;2023-02-03T09:25:31;100308.21;;;7.63;53.41
44441;BME280;30146;52.268;20.944;2023-02-03T09:28:03;100298.65;;;7.45;53.24
44441;BME280;30146;52.268;20.944;2023-02-03T09:30:36;100291.47;;;7.35;53.41
44441;BME280;30146;52.268;20.944;2023-02-03T09:33:07;100282.11;;;7.29;53.50
44441;BME280;30146;52.268;20.944;2023-02-03T09:35:38;100272.52;;;7.11;53.28
44441;BME280;30146;52.268;20.944;2023-02-03T09:38:09;100270.09;;;6.96;53.45
44441;BME280;30146;52.268;20.944;2023-02-03T09:40:40;100267.00;;;6.87;53.61
44441;BME280;30146;52.268;20.944;2023-02-03T09:43:31;100261.17;;;6.75;53.25
44441;BME280;30146;52.268;20.944;2023-02-03T09:46:10;100253.98;;;6.66;53.52
44441;BME280;30146;52.268;20.944;2023-02-03T09:48:46;100243.31;;;6.73;54.12
44441;BME280;30146;52.268;20.944;2023-02-03T09:51:21;100236.40;;;6.84;54.45
44441;BME280;30146;52.268;20.944;2023-02-03T09:53:59;100236.27;;;6.97;54.40
44441;BME280;30146;52.268;20.944;2023-02-03T09:56:33;100225.92;;;7.03;53.68
44441;BME280;30146;52.268;20.944;2023-02-03T09:59:07;100218.80;;;7.04;53.16
44441;BME280;30146;52.268;20.944;2023-02-03T10:01:44;100215.55;;;6.98;53.13
44441;BME280;30146;52.268;20.944;2023-02-03T10:04:27;100203.97;;;6.89;52.90
44441;BME280;30146;52.268;20.944;2023-02-03T10:07:09;100200.02;;;6.77;52.59
44441;BME280;30146;52.268;20.944;2023-02-03T10:09:52;100187.22;;;6.63;52.52
44441;BME280;30146;52.268;20.944;2023-02-03T10:12:42;100182.96;;;6.60;52.84
44441;BME280;30146;52.268;20.944;2023-02-03T10:15:42;100182.20;;;6.85;53.25
44441;BME280;30146;52.268;20.944;2023-02-03T10:18:21;100175.46;;;7.07;53.09
44441;BME280;30146;52.268;20.944;2023-02-03T10:20:55;100166.45;;;7.01;52.46
44441;BME280;30146;52.268;20.944;2023-02-03T10:23:30;100163.14;;;6.78;51.92
44441;BME280;30146;52.268;20.944;2023-02-03T10:26:05;100156.77;;;6.49;51.68
44441;BME280;30146;52.268;20.944;2023-02-03T10:28:39;100146.81;;;6.26;52.05
44441;BME280;30146;52.268;20.944;2023-02-03T10:31:17;100140.98;;;6.14;52.49
44441;BME280;30146;52.268;20.944;2023-02-03T10:33:56;100128.02;;;6.03;52.65
44441;BME280;30146;52.268;20.944;2023-02-03T10:36:36;100116.52;;;5.86;52.83
44441;BME280;30146;52.268;20.944;2023-02-03T10:39:18;100114.86;;;5.66;52.86
44441;BME280;30146;52.268;20.944;2023-02-03T10:41:53;100114.09;;;5.51;53.53
44441;BME280;30146;52.268;20.944;2023-02-03T10:44:27;100106.75;;;5.46;54.02
44441;BME280;30146;52.268;20.944;2023-02-03T10:47:00;100098.25;;;5.42;53.47
44441;BME280;30146;52.268;20.944;2023-02-03T10:49:31;100092.19;;;5.25;53.09
44441;BME280;30146;52.268;20.944;2023-02-03T10:52:02;100084.73;;;5.08;52.85
44441;BME280;30146;52.268;20.944;2023-02-03T10:54:34;100073.36;;;4.84;52.45
44441;BME280;30146;52.268;20.944;2023-02-03T10:57:11;100066.52;;;4.59;52.90
44441;BME280;30146;52.268;20.944;2023-02-03T10:59:46;100057.03;;;4.43;53.26
44441;BME280;30146;52.268;20.944;2023-02-03T11:02:26;100043.13;;;4.41;54.24
44441;BME280;30146;52.268;20.944;2023-02-03T11:05:17;100044.45;;;4.38;54.20
44441;BME280;30146;52.268;20.944;2023-02-03T11:07:49;100027.84;;;4.19;53.96
44441;BME280;30146;52.268;20.944;2023-02-03T11:10:33;100014.27;;;4.01;53.83
44441;BME280;30146;52.268;20.944;2023-02-03T11:13:15;100000.40;;;3.88;54.17
44441;BME280;30146;52.268;20.944;2023-02-03T11:15:52;99986.48;;;3.82;54.97
44441;BME280;30146;52.268;20.944;2023-02-03T11:18:38;99978.48;;;3.78;54.73
44441;BME280;30146;52.268;20.944;2023-02-03T11:21:12;99967.68;;;3.67;54.64
44441;BME280;30146;52.268;20.944;2023-02-03T11:23:48;99958.77;;;3.57;55.12
44441;BME280;30146;52.268;20.944;2023-02-03T11:26:24;99953.75;;;3.48;54.97
44441;BME280;30146;52.268;20.944;2023-02-03T11:28:58;99946.18;;;3.37;55.01
44441;BME280;30146;52.268;20.944;2023-02-03T11:31:31;99935.91;;;3.27;55.25
44441;BME280;30146;52.268;20.944;2023-02-03T11:34:06;99922.55;;;3.14;55.15
44441;BME280;30146;52.268;20.944;2023-02-03T11:36:44;99915.58;;;2.98;55.23
44441;BME280;30146;52.268;20.944;2023-02-03T11:39:29;99905.81;;;2.89;55.74
44441;BME280;30146;52.268;20.944;2023-02-03T11:42:22;99897.81;;;2.84;55.93
44441;BME280;30146;52.268;20.944;2023-02-03T11:44:53;99886.08;;;2.78;55.60
44441;BME280;30146;52.268;20.944;2023-02-03T11:47:47;99880.98;;;2.64;55.53
44441;BME280;30146;52.268;20.944;2023-02-03T11:50:26;99882.85;;;2.54;56.10
44441;BME280;30146;52.268;20.944;2023-02-03T11:53:13;99884.41;;;2.45;56.03
44441;BME280;30146;52.268;20.944;2023-02-03T11:56:03;99874.45;;;2.35;55.82
44441;BME280;30146;52.268;20.944;2023-02-03T11:59:00;99869.60;;;2.27;56.20
44441;BME280;30146;52.268;20.944;2023-02-03T12:01:42;99869.02;;;2.22;56.38
44441;BME280;30146;52.268;20.944;2023-02-03T12:04:25;99858.30;;;2.17;56.57
44441;BME280;30146;52.268;20.944;2023-02-03T12:07:24;99844.73;;;2.12;56.74
44441;BME280;30146;52.268;20.944;2023-02-03T12:10:07;99843.20;;;2.11;56.85
44441;BME280;30146;52.268;20.944;2023-02-03T12:12:49;99840.66;;;2.10;57.05
44441;BME280;30146;52.268;20.944;2023-02-03T12:15:35;99829.68;;;2.09;57.34
44441;BME280;30146;52.268;20.944;2023-02-03T12:18:25;99829.70;;;2.10;57.07
44441;BME280;30146;52.268;20.944;2023-02-03T12:21:16;99818.84;;;2.06;56.89
44441;BME280;30146;52.268;20.944;2023-02-03T12:23:56;99811.42;;;2.06;57.11
44441;BME280;30146;52.268;20.944;2023-02-03T12:26:36;99806.12;;;2.01;57.08
44441;BME280;30146;52.268;20.944;2023-02-03T12:29:11;99797.29;;;1.97;57.02
44441;BME280;30146;52.268;20.944;2023-02-03T12:31:46;99796.23;;;1.95;57.45
44441;BME280;30146;52.268;20.944;2023-02-03T12:34:23;99786.58;;;1.92;57.33
44441;BME280;30146;52.268;20.944;2023-02-03T12:37:00;99776.80;;;1.92;57.47
44441;BME280;30146;52.268;20.944;2023-02-03T12:39:37;99776.27;;;1.91;57.26
44441;BME280;30146;52.268;20.944;2023-02-03T12:42:17;99770.17;;;1.89;57.37
44441;BME280;30146;52.268;20.944;2023-02-03T12:44:51;99766.96;;;1.88;57.71
44441;BME280;30146;52.268;20.944;2023-02-03T12:47:30;99755.16;;;1.88;57.68
44441;BME280;30146;52.268;20.944;2023-02-03T12:50:05;99743.04;;;1.89;57.71
44441;BME280;30146;52.268;20.944;2023-02-03T12:52:39;99735.84;;;1.91;58.07
44441;BME280;30146;52.268;20.944;2023-02-03T12:55:21;99725.05;;;1.92;57.81
44441;BME280;30146;52.268;20.944;2023-02-03T12:57:59;99713.40;;;1.90;57.75
44441;BME280;30146;52.268;20.944;2023-02-03T13:00:36;99697.98;;;1.85;57.68
44441;BME280;30146;52.268;20.944;2023-02-03T13:03:14;99693.73;;;1.82;57.90
44441;BME280;30146;52.268;20.944;2023-02-03T13:05:51;99685.40;;;1.77;57.93
44441;BME280;30146;52.268;20.944;2023-02-03T13:08:30;99683.73;;;1.68;58.04
44441;BME280;30146;52.268;20.944;2023-02-03T13:11:16;99668.04;;;1.55;58.17
44441;BME280;30146;52.268;20.944;2023-02-03T13:13:49;99660.34;;;1.48;58.64
44441;BME280;30146;52.268;20.944;2023-02-03T13:16:26;99652.85;;;1.43;58.97
44441;BME280;30146;52.268;20.944;2023-02-03T13:19:01;99637.06;;;1.36;59.36
44441;BME280;30146;52.268;20.944;2023-02-03T13:21:33;99626.20;;;1.30;59.61
44441;BME280;30146;52.268;20.944;2023-02-03T13:24:05;99623.77;;;1.26;60.10
44441;BME280;30146;52.268;20.944;2023-02-03T13:26:53;99613.94;;;1.21;60.19
44441;BME280;30146;52.268;20.944;2023-02-03T13:29:53;99602.56;;;1.15;60.46
44441;BME280;30146;52.268;20.944;2023-02-03T13:32:42;99591.15;;;1.08;60.83
44441;BME280;30146;52.268;20.944;2023-02-03T13:35:33;99581.15;;;1.04;61.13